A- A+ FrançaisEnglishEspañol中国

最近的 LFSG Epinal-MirecourtLFBT Tarbes-Lourdes-PyrénéesLFQU Sarre-UnionLFOH Le-Havre-Octeville

飞行员的航空天气,使用METAR(气象机场报告)进行的飞行准备和TAF(终端机场预报:针对以下情况的短期天气预报)航空)。 以及其他资源,例如VAC(目视进近图)和NOTAM(通知飞行员)以进行预试飞行.

METAR, TAF, VAC, NOTAM Hemavan机场 (Suède) / OACI ESUT/ IATA HMV

Hemavan机场的高度为458 m=1503 ft. 它位于附近 (Suède). 可提供5天天气预报 Boksjö 位于 36.3 km.

METAR Hemavan机场的 - ESUT

ESUT 120850Z AUTO 12004KT 9999 -SN OVC015/// M03/M04 Q0970 RESN

Hemavan机场METAR解码 (SE)

ESUT机场发行的METAR日期mercredi 12 février 2020至08:50 GMT. 这是一个自动生成的METAR. 警告:此METAR已过期,已于428分钟前发布.

可见度为大于 10 km = 大于6.2 sm.

温度为-3°C = 27 °F 露点为-4°C = 25 °F 。 这相当于93%的相对湿度。.

QNH是970 hPa = 28.64 inHg

的风4 kt = 7 km/h, 风向为120°.

云:多云1500 ft=460云.

光雪

RE雪

TAF Hemavan机场的 - ESUT

没有TAF

附近的机场Hemavan

Boksjö的一般天气5天预报 (36.3 km)

ENRA Mo I Rana Rossvoll机场 (71 km)ENMS Mosjoen Kjaerstad机场 (85 km)ENST Sandnessjoen Stokka机场 (120 km)ENBN Bronnoysund Bronnoy机场 (137 km)ESUD Storumam机场 (153 km)ESNV Vilhelmina机场 (159 km)ENBO Bodo机场 (166 km)

Hemavan机场的NOTAM

提供的NOTAM不能保证其时事性。 在将其用于飞行准备或在飞行期间使用之前,飞行员是唯一负责验证其有效性的人员。

没有通知

数据源